sensor_id;sensor_type;location;lat;lon;timestamp;P1;durP1;ratioP1;P2;durP2;ratioP2
45620;SDS011;31345;51.522;10.702;2023-03-30T00:01:34;11.57;;;6.97;;
45620;SDS011;31345;51.522;10.702;2023-03-30T00:04:02;8.90;;;6.57;;
45620;SDS011;31345;51.522;10.702;2023-03-30T00:06:35;10.07;;;6.68;;
45620;SDS011;31345;51.522;10.702;2023-03-30T00:09:10;8.43;;;6.63;;
45620;SDS011;31345;51.522;10.702;2023-03-30T00:11:38;8.70;;;5.82;;
45620;SDS011;31345;51.522;10.702;2023-03-30T00:14:11;8.95;;;6.60;;
45620;SDS011;31345;51.522;10.702;2023-03-30T00:16:38;10.35;;;6.50;;
45620;SDS011;31345;51.522;10.702;2023-03-30T00:19:11;9.77;;;6.47;;
45620;SDS011;31345;51.522;10.702;2023-03-30T00:21:44;9.50;;;5.93;;
45620;SDS011;31345;51.522;10.702;2023-03-30T00:24:18;10.57;;;7.05;;
45620;SDS011;31345;51.522;10.702;2023-03-30T00:26:46;8.73;;;6.20;;
45620;SDS011;31345;51.522;10.702;2023-03-30T00:29:18;9.95;;;6.50;;
45620;SDS011;31345;51.522;10.702;2023-03-30T00:31:48;10.65;;;6.88;;
45620;SDS011;31345;51.522;10.702;2023-03-30T00:34:20;9.43;;;6.82;;
45620;SDS011;31345;51.522;10.702;2023-03-30T00:36:54;9.70;;;6.70;;
45620;SDS011;31345;51.522;10.702;2023-03-30T00:39:29;17.35;;;8.60;;
45620;SDS011;31345;51.522;10.702;2023-03-30T00:41:57;10.38;;;7.15;;
45620;SDS011;31345;51.522;10.702;2023-03-30T00:47:33;21.98;;;10.45;;
45620;SDS011;31345;51.522;10.702;2023-03-30T00:50:09;21.40;;;10.40;;
45620;SDS011;31345;51.522;10.702;2023-03-30T00:52:43;22.55;;;11.40;;
45620;SDS011;31345;51.522;10.702;2023-03-30T00:55:18;9.25;;;7.00;;
45620;SDS011;31345;51.522;10.702;2023-03-30T00:57:48;9.93;;;6.80;;
45620;SDS011;31345;51.522;10.702;2023-03-30T01:00:17;9.32;;;6.68;;
45620;SDS011;31345;51.522;10.702;2023-03-30T01:02:52;9.15;;;6.32;;
45620;SDS011;31345;51.522;10.702;2023-03-30T01:05:28;11.20;;;6.07;;
45620;SDS011;31345;51.522;10.702;2023-03-30T01:08:02;9.80;;;6.53;;
45620;SDS011;31345;51.522;10.702;2023-03-30T01:10:34;8.90;;;6.75;;
45620;SDS011;31345;51.522;10.702;2023-03-30T01:13:01;10.35;;;6.25;;
45620;SDS011;31345;51.522;10.702;2023-03-30T01:15:30;8.95;;;5.75;;
45620;SDS011;31345;51.522;10.702;2023-03-30T01:18:14;7.28;;;5.75;;
45620;SDS011;31345;51.522;10.702;2023-03-30T01:21:00;8.07;;;5.72;;
45620;SDS011;31345;51.522;10.702;2023-03-30T01:27:37;8.43;;;6.20;;
45620;SDS011;31345;51.522;10.702;2023-03-30T01:30:29;11.73;;;6.10;;
45620;SDS011;31345;51.522;10.702;2023-03-30T01:33:15;7.43;;;5.25;;
45620;SDS011;31345;51.522;10.702;2023-03-30T01:36:15;7.45;;;5.25;;
45620;SDS011;31345;51.522;10.702;2023-03-30T01:39:14;10.82;;;5.93;;
45620;SDS011;31345;51.522;10.702;2023-03-30T01:41:49;9.32;;;5.72;;
45620;SDS011;31345;51.522;10.702;2023-03-30T01:44:29;8.55;;;6.03;;
45620;SDS011;31345;51.522;10.702;2023-03-30T01:47:06;7.75;;;5.85;;
45620;SDS011;31345;51.522;10.702;2023-03-30T01:49:49;8.88;;;5.22;;
45620;SDS011;31345;51.522;10.702;2023-03-30T01:52:25;8.75;;;5.53;;
45620;SDS011;31345;51.522;10.702;2023-03-30T01:55:06;9.10;;;5.95;;
45620;SDS011;31345;51.522;10.702;2023-03-30T01:57:44;10.90;;;6.20;;
45620;SDS011;31345;51.522;10.702;2023-03-30T02:00:18;7.85;;;5.53;;
45620;SDS011;31345;51.522;10.702;2023-03-30T02:02:54;10.55;;;6.20;;
45620;SDS011;31345;51.522;10.702;2023-03-30T02:05:26;8.82;;;5.95;;
45620;SDS011;31345;51.522;10.702;2023-03-30T02:07:56;13.30;;;5.88;;
45620;SDS011;31345;51.522;10.702;2023-03-30T02:10:34;16.50;;;7.32;;
45620;SDS011;31345;51.522;10.702;2023-03-30T02:13:03;11.15;;;7.10;;
45620;SDS011;31345;51.522;10.702;2023-03-30T02:15:34;9.38;;;5.95;;
45620;SDS011;31345;51.522;10.702;2023-03-30T02:18:05;13.18;;;8.25;;
45620;SDS011;31345;51.522;10.702;2023-03-30T02:20:32;15.13;;;7.93;;
45620;SDS011;31345;51.522;10.702;2023-03-30T02:23:06;13.73;;;7.32;;
45620;SDS011;31345;51.522;10.702;2023-03-30T02:25:41;8.23;;;6.00;;
45620;SDS011;31345;51.522;10.702;2023-03-30T02:28:13;9.93;;;5.90;;
45620;SDS011;31345;51.522;10.702;2023-03-30T02:30:48;14.48;;;8.40;;
45620;SDS011;31345;51.522;10.702;2023-03-30T02:33:23;15.35;;;8.68;;
45620;SDS011;31345;51.522;10.702;2023-03-30T02:36:14;13.20;;;7.28;;
45620;SDS011;31345;51.522;10.702;2023-03-30T02:39:01;14.27;;;8.47;;
45620;SDS011;31345;51.522;10.702;2023-03-30T02:41:52;14.93;;;8.57;;
45620;SDS011;31345;51.522;10.702;2023-03-30T02:44:43;13.57;;;8.10;;
45620;SDS011;31345;51.522;10.702;2023-03-30T02:47:20;17.60;;;8.90;;
45620;SDS011;31345;51.522;10.702;2023-03-30T02:50:02;13.93;;;7.53;;
45620;SDS011;31345;51.522;10.702;2023-03-30T02:52:39;15.70;;;7.67;;
45620;SDS011;31345;51.522;10.702;2023-03-30T02:55:13;14.40;;;7.70;;
45620;SDS011;31345;51.522;10.702;2023-03-30T02:57:56;11.75;;;7.57;;
45620;SDS011;31345;51.522;10.702;2023-03-30T03:00:48;9.53;;;6.13;;
45620;SDS011;31345;51.522;10.702;2023-03-30T03:03:32;10.77;;;7.23;;
45620;SDS011;31345;51.522;10.702;2023-03-30T03:06:07;9.50;;;5.80;;
45620;SDS011;31345;51.522;10.702;2023-03-30T03:08:48;9.30;;;5.90;;
45620;SDS011;31345;51.522;10.702;2023-03-30T03:11:22;8.93;;;5.73;;
45620;SDS011;31345;51.522;10.702;2023-03-30T03:13:56;8.93;;;5.80;;
45620;SDS011;31345;51.522;10.702;2023-03-30T03:16:25;10.57;;;6.72;;
45620;SDS011;31345;51.522;10.702;2023-03-30T03:19:18;11.87;;;6.87;;
45620;SDS011;31345;51.522;10.702;2023-03-30T03:21:54;13.73;;;7.75;;
45620;SDS011;31345;51.522;10.702;2023-03-30T03:24:27;12.07;;;6.97;;
45620;SDS011;31345;51.522;10.702;2023-03-30T03:27:18;8.02;;;6.03;;
45620;SDS011;31345;51.522;10.702;2023-03-30T03:36:28;7.93;;;6.03;;
45620;SDS011;31345;51.522;10.702;2023-03-30T03:39:27;8.63;;;5.43;;
45620;SDS011;31345;51.522;10.702;2023-03-30T03:42:16;10.27;;;5.95;;
45620;SDS011;31345;51.522;10.702;2023-03-30T03:45:00;8.50;;;6.27;;
45620;SDS011;31345;51.522;10.702;2023-03-30T03:47:35;10.13;;;6.33;;
45620;SDS011;31345;51.522;10.702;2023-03-30T03:50:12;11.70;;;6.73;;
45620;SDS011;31345;51.522;10.702;2023-03-30T03:52:56;8.20;;;6.53;;
45620;SDS011;31345;51.522;10.702;2023-03-30T03:55:36;8.45;;;6.50;;
45620;SDS011;31345;51.522;10.702;2023-03-30T03:58:23;9.85;;;6.25;;
45620;SDS011;31345;51.522;10.702;2023-03-30T04:01:05;9.13;;;6.80;;
45620;SDS011;31345;51.522;10.702;2023-03-30T04:03:51;8.80;;;6.17;;
45620;SDS011;31345;51.522;10.702;2023-03-30T04:06:31;9.73;;;6.43;;
45620;SDS011;31345;51.522;10.702;2023-03-30T04:09:18;9.93;;;6.13;;
45620;SDS011;31345;51.522;10.702;2023-03-30T04:12:40;9.53;;;6.63;;
45620;SDS011;31345;51.522;10.702;2023-03-30T04:16:02;7.00;;;5.73;;
45620;SDS011;31345;51.522;10.702;2023-03-30T04:22:23;7.20;;;5.68;;
45620;SDS011;31345;51.522;10.702;2023-03-30T04:25:29;12.93;;;7.00;;
45620;SDS011;31345;51.522;10.702;2023-03-30T04:28:21;14.57;;;7.73;;
45620;SDS011;31345;51.522;10.702;2023-03-30T04:34:30;9.10;;;6.45;;
45620;SDS011;31345;51.522;10.702;2023-03-30T04:37:13;9.18;;;5.65;;
45620;SDS011;31345;51.522;10.702;2023-03-30T04:40:35;7.93;;;5.80;;
45620;SDS011;31345;51.522;10.702;2023-03-30T04:43:20;9.07;;;6.13;;
45620;SDS011;31345;51.522;10.702;2023-03-30T04:46:05;10.20;;;5.73;;
45620;SDS011;31345;51.522;10.702;2023-03-30T04:48:59;8.25;;;5.70;;
45620;SDS011;31345;51.522;10.702;2023-03-30T04:52:03;8.47;;;5.47;;
45620;SDS011;31345;51.522;10.702;2023-03-30T04:54:51;9.55;;;6.05;;
45620;SDS011;31345;51.522;10.702;2023-03-30T04:57:45;9.20;;;6.18;;
45620;SDS011;31345;51.522;10.702;2023-03-30T05:00:49;11.82;;;6.20;;
45620;SDS011;31345;51.522;10.702;2023-03-30T05:03:49;10.20;;;6.22;;
45620;SDS011;31345;51.522;10.702;2023-03-30T05:06:41;8.30;;;6.13;;
45620;SDS011;31345;51.522;10.702;2023-03-30T05:09:51;8.87;;;6.17;;
45620;SDS011;31345;51.522;10.702;2023-03-30T05:20:30;10.63;;;6.05;;
45620;SDS011;31345;51.522;10.702;2023-03-30T05:23:53;6.88;;;5.20;;
45620;SDS011;31345;51.522;10.702;2023-03-30T05:27:02;7.93;;;5.85;;
45620;SDS011;31345;51.522;10.702;2023-03-30T05:29:30;7.22;;;5.47;;
45620;SDS011;31345;51.522;10.702;2023-03-30T05:32:25;6.90;;;5.25;;
45620;SDS011;31345;51.522;10.702;2023-03-30T05:35:22;8.40;;;4.93;;
45620;SDS011;31345;51.522;10.702;2023-03-30T05:38:15;8.15;;;4.80;;
45620;SDS011;31345;51.522;10.702;2023-03-30T05:41:13;7.68;;;5.28;;
45620;SDS011;31345;51.522;10.702;2023-03-30T05:43:56;7.22;;;5.47;;
